sensor_id;sensor_type;location;lat;lon;timestamp;P1;durP1;ratioP1;P2;durP2;ratioP2
15254;SDS011;7730;49.610;11.136;2023-04-24T00:00:42;3.92;;;2.00;;
15254;SDS011;7730;49.610;11.136;2023-04-24T00:03:10;5.20;;;1.98;;
15254;SDS011;7730;49.610;11.136;2023-04-24T00:05:37;3.60;;;2.00;;
15254;SDS011;7730;49.610;11.136;2023-04-24T00:08:06;4.47;;;1.95;;
15254;SDS011;7730;49.610;11.136;2023-04-24T00:10:33;5.22;;;2.10;;
15254;SDS011;7730;49.610;11.136;2023-04-24T00:13:01;4.70;;;2.00;;
15254;SDS011;7730;49.610;11.136;2023-04-24T00:15:28;4.55;;;1.77;;
15254;SDS011;7730;49.610;11.136;2023-04-24T00:17:56;4.10;;;2.00;;
15254;SDS011;7730;49.610;11.136;2023-04-24T00:20:23;3.97;;;1.70;;
15254;SDS011;7730;49.610;11.136;2023-04-24T00:22:50;3.42;;;1.77;;
15254;SDS011;7730;49.610;11.136;2023-04-24T00:25:17;4.03;;;2.00;;
15254;SDS011;7730;49.610;11.136;2023-04-24T00:27:44;3.72;;;2.08;;
15254;SDS011;7730;49.610;11.136;2023-04-24T00:30:12;2.78;;;1.65;;
15254;SDS011;7730;49.610;11.136;2023-04-24T00:32:40;3.67;;;1.90;;
15254;SDS011;7730;49.610;11.136;2023-04-24T00:35:07;4.88;;;2.10;;
15254;SDS011;7730;49.610;11.136;2023-04-24T00:37:34;4.85;;;1.92;;
15254;SDS011;7730;49.610;11.136;2023-04-24T00:40:01;3.95;;;1.75;;
15254;SDS011;7730;49.610;11.136;2023-04-24T00:42:28;4.70;;;1.90;;
15254;SDS011;7730;49.610;11.136;2023-04-24T00:44:55;4.80;;;2.00;;
15254;SDS011;7730;49.610;11.136;2023-04-24T00:47:24;6.47;;;1.90;;
15254;SDS011;7730;49.610;11.136;2023-04-24T00:49:52;3.97;;;1.90;;
15254;SDS011;7730;49.610;11.136;2023-04-24T00:52:19;3.17;;;1.90;;
15254;SDS011;7730;49.610;11.136;2023-04-24T00:54:49;3.83;;;1.70;;
15254;SDS011;7730;49.610;11.136;2023-04-24T00:57:16;3.78;;;1.90;;
15254;SDS011;7730;49.610;11.136;2023-04-24T00:59:43;5.30;;;2.10;;
15254;SDS011;7730;49.610;11.136;2023-04-24T01:02:10;5.53;;;2.00;;
15254;SDS011;7730;49.610;11.136;2023-04-24T01:04:39;3.38;;;2.00;;
15254;SDS011;7730;49.610;11.136;2023-04-24T01:07:06;4.85;;;2.00;;
15254;SDS011;7730;49.610;11.136;2023-04-24T01:09:35;2.72;;;1.90;;
15254;SDS011;7730;49.610;11.136;2023-04-24T01:12:02;2.63;;;1.80;;
15254;SDS011;7730;49.610;11.136;2023-04-24T01:14:30;6.18;;;2.03;;
15254;SDS011;7730;49.610;11.136;2023-04-24T01:16:57;4.70;;;1.90;;
15254;SDS011;7730;49.610;11.136;2023-04-24T01:19:25;2.50;;;1.70;;
15254;SDS011;7730;49.610;11.136;2023-04-24T01:21:53;4.75;;;1.90;;
15254;SDS011;7730;49.610;11.136;2023-04-24T01:24:23;4.50;;;2.00;;
15254;SDS011;7730;49.610;11.136;2023-04-24T01:26:50;2.72;;;1.80;;
15254;SDS011;7730;49.610;11.136;2023-04-24T01:29:18;4.32;;;2.10;;
15254;SDS011;7730;49.610;11.136;2023-04-24T01:31:45;2.78;;;1.80;;
15254;SDS011;7730;49.610;11.136;2023-04-24T01:34:12;2.83;;;1.77;;
15254;SDS011;7730;49.610;11.136;2023-04-24T01:36:39;4.72;;;2.10;;
15254;SDS011;7730;49.610;11.136;2023-04-24T01:39:07;2.70;;;1.80;;
15254;SDS011;7730;49.610;11.136;2023-04-24T01:41:36;4.97;;;1.90;;
15254;SDS011;7730;49.610;11.136;2023-04-24T01:44:03;3.80;;;1.98;;
15254;SDS011;7730;49.610;11.136;2023-04-24T01:46:30;5.22;;;1.90;;
15254;SDS011;7730;49.610;11.136;2023-04-24T01:48:59;2.97;;;2.00;;
15254;SDS011;7730;49.610;11.136;2023-04-24T01:51:26;5.90;;;2.17;;
15254;SDS011;7730;49.610;11.136;2023-04-24T01:53:53;3.72;;;1.80;;
15254;SDS011;7730;49.610;11.136;2023-04-24T01:56:21;4.55;;;1.88;;
15254;SDS011;7730;49.610;11.136;2023-04-24T01:58:49;4.45;;;2.00;;
15254;SDS011;7730;49.610;11.136;2023-04-24T02:01:17;4.55;;;2.00;;
15254;SDS011;7730;49.610;11.136;2023-04-24T02:03:45;5.35;;;2.00;;
15254;SDS011;7730;49.610;11.136;2023-04-24T02:06:12;3.13;;;1.70;;
15254;SDS011;7730;49.610;11.136;2023-04-24T02:08:39;2.70;;;1.67;;
15254;SDS011;7730;49.610;11.136;2023-04-24T02:11:06;4.18;;;1.90;;
15254;SDS011;7730;49.610;11.136;2023-04-24T02:13:33;4.10;;;2.00;;
15254;SDS011;7730;49.610;11.136;2023-04-24T02:16:01;6.32;;;2.05;;
15254;SDS011;7730;49.610;11.136;2023-04-24T02:18:28;3.88;;;1.98;;
15254;SDS011;7730;49.610;11.136;2023-04-24T02:20:55;3.45;;;2.10;;
15254;SDS011;7730;49.610;11.136;2023-04-24T02:23:22;2.15;;;1.70;;
15254;SDS011;7730;49.610;11.136;2023-04-24T02:25:49;4.00;;;1.92;;
15254;SDS011;7730;49.610;11.136;2023-04-24T02:28:18;2.60;;;1.73;;
15254;SDS011;7730;49.610;11.136;2023-04-24T02:30:45;1.80;;;1.63;;
15254;SDS011;7730;49.610;11.136;2023-04-24T02:33:13;3.45;;;1.80;;
15254;SDS011;7730;49.610;11.136;2023-04-24T02:35:40;3.78;;;1.75;;
15254;SDS011;7730;49.610;11.136;2023-04-24T02:38:07;3.85;;;1.80;;
15254;SDS011;7730;49.610;11.136;2023-04-24T02:40:34;5.18;;;1.92;;
15254;SDS011;7730;49.610;11.136;2023-04-24T02:43:01;2.83;;;1.60;;
15254;SDS011;7730;49.610;11.136;2023-04-24T02:45:28;4.53;;;2.05;;
15254;SDS011;7730;49.610;11.136;2023-04-24T02:47:55;3.35;;;1.70;;
15254;SDS011;7730;49.610;11.136;2023-04-24T02:50:23;3.53;;;1.70;;
15254;SDS011;7730;49.610;11.136;2023-04-24T02:52:50;3.00;;;1.67;;
15254;SDS011;7730;49.610;11.136;2023-04-24T02:55:18;3.55;;;1.75;;
15254;SDS011;7730;49.610;11.136;2023-04-24T02:57:45;4.07;;;1.85;;
15254;SDS011;7730;49.610;11.136;2023-04-24T03:00:12;5.05;;;2.08;;
15254;SDS011;7730;49.610;11.136;2023-04-24T03:02:39;3.22;;;1.67;;
15254;SDS011;7730;49.610;11.136;2023-04-24T03:05:06;4.03;;;1.70;;
15254;SDS011;7730;49.610;11.136;2023-04-24T03:07:35;3.67;;;1.83;;
15254;SDS011;7730;49.610;11.136;2023-04-24T03:10:03;6.80;;;2.03;;
15254;SDS011;7730;49.610;11.136;2023-04-24T03:12:30;3.10;;;1.77;;
15254;SDS011;7730;49.610;11.136;2023-04-24T03:14:57;3.50;;;1.70;;
15254;SDS011;7730;49.610;11.136;2023-04-24T03:17:24;1.92;;;1.50;;
15254;SDS011;7730;49.610;11.136;2023-04-24T03:19:51;2.58;;;1.60;;
15254;SDS011;7730;49.610;11.136;2023-04-24T03:22:18;1.88;;;1.40;;
15254;SDS011;7730;49.610;11.136;2023-04-24T03:24:47;2.35;;;1.60;;
15254;SDS011;7730;49.610;11.136;2023-04-24T03:27:14;3.08;;;1.48;;
15254;SDS011;7730;49.610;11.136;2023-04-24T03:29:41;3.35;;;1.60;;
15254;SDS011;7730;49.610;11.136;2023-04-24T03:32:08;2.50;;;1.50;;
15254;SDS011;7730;49.610;11.136;2023-04-24T03:34:35;3.67;;;1.63;;
15254;SDS011;7730;49.610;11.136;2023-04-24T03:37:02;3.03;;;1.48;;
15254;SDS011;7730;49.610;11.136;2023-04-24T03:39:29;2.78;;;1.50;;
15254;SDS011;7730;49.610;11.136;2023-04-24T03:41:57;3.20;;;1.50;;
15254;SDS011;7730;49.610;11.136;2023-04-24T03:44:25;3.20;;;1.58;;
15254;SDS011;7730;49.610;11.136;2023-04-24T03:46:52;4.18;;;1.50;;
15254;SDS011;7730;49.610;11.136;2023-04-24T03:49:19;4.55;;;1.50;;
15254;SDS011;7730;49.610;11.136;2023-04-24T03:51:46;3.40;;;1.67;;
15254;SDS011;7730;49.610;11.136;2023-04-24T03:54:14;3.30;;;1.40;;
15254;SDS011;7730;49.610;11.136;2023-04-24T03:56:41;2.45;;;1.60;;
15254;SDS011;7730;49.610;11.136;2023-04-24T03:59:09;2.58;;;1.55;;
15254;SDS011;7730;49.610;11.136;2023-04-24T04:01:36;3.10;;;1.60;;
15254;SDS011;7730;49.610;11.136;2023-04-24T04:04:04;3.05;;;1.52;;
15254;SDS011;7730;49.610;11.136;2023-04-24T04:06:31;5.47;;;1.73;;
15254;SDS011;7730;49.610;11.136;2023-04-24T04:08:59;1.98;;;1.30;;
15254;SDS011;7730;49.610;11.136;2023-04-24T04:11:26;5.63;;;1.60;;
15254;SDS011;7730;49.610;11.136;2023-04-24T04:13:53;3.55;;;1.50;;
15254;SDS011;7730;49.610;11.136;2023-04-24T04:16:23;4.43;;;1.50;;
15254;SDS011;7730;49.610;11.136;2023-04-24T04:18:50;2.80;;;1.60;;
15254;SDS011;7730;49.610;11.136;2023-04-24T04:21:17;1.80;;;1.33;;
15254;SDS011;7730;49.610;11.136;2023-04-24T04:23:44;2.33;;;1.40;;
15254;SDS011;7730;49.610;11.136;2023-04-24T04:26:11;1.40;;;1.30;;
15254;SDS011;7730;49.610;11.136;2023-04-24T04:28:38;3.08;;;1.50;;
15254;SDS011;7730;49.610;11.136;2023-04-24T04:31:05;2.05;;;1.40;;
15254;SDS011;7730;49.610;11.136;2023-04-24T04:33:35;3.65;;;1.60;;
15254;SDS011;7730;49.610;11.136;2023-04-24T04:36:03;3.40;;;1.60;;
15254;SDS011;7730;49.610;11.136;2023-04-24T04:38:30;2.33;;;1.60;;
15254;SDS011;7730;49.610;11.136;2023-04-24T04:40:57;3.10;;;1.60;;
15254;SDS011;7730;49.610;11.136;2023-04-24T04:43:24;2.75;;;1.40;;
15254;SDS011;7730;49.610;11.136;2023-04-24T04:45:51;5.10;;;1.60;;
15254;SDS011;7730;49.610;11.136;2023-04-24T04:48:19;2.75;;;1.50;;
15254;SDS011;7730;49.610;11.136;2023-04-24T04:50:48;3.60;;;1.70;;
15254;SDS011;7730;49.610;11.136;2023-04-24T04:53:15;3.17;;;1.70;;
15254;SDS011;7730;49.610;11.136;2023-04-24T04:55:42;3.67;;;1.70;;
15254;SDS011;7730;49.610;11.136;2023-04-24T04:58:11;3.03;;;1.55;;
15254;SDS011;7730;49.610;11.136;2023-04-24T05:00:38;3.92;;;1.52;;
15254;SDS011;7730;49.610;11.136;2023-04-24T05:03:06;3.20;;;1.50;;
15254;SDS011;7730;49.610;11.136;2023-04-24T05:05:33;3.70;;;1.88;;
15254;SDS011;7730;49.610;11.136;2023-04-24T05:08:01;4.25;;;1.75;;
15254;SDS011;7730;49.610;11.136;2023-04-24T05:10:28;3.70;;;1.70;;
15254;SDS011;7730;49.610;11.136;2023-04-24T05:12:55;3.85;;;1.80;;
15254;SDS011;7730;49.610;11.136;2023-04-24T05:15:22;2.58;;;1.75;;
15254;SDS011;7730;49.610;11.136;2023-04-24T05:17:49;2.67;;;1.65;;
15254;SDS011;7730;49.610;11.136;2023-04-24T05:20:16;2.75;;;1.63;;
15254;SDS011;7730;49.610;11.136;2023-04-24T05:22:43;2.92;;;1.60;;
15254;SDS011;7730;49.610;11.136;2023-04-24T05:25:12;3.65;;;1.80;;
15254;SDS011;7730;49.610;11.136;2023-04-24T05:27:39;2.38;;;1.70;;
15254;SDS011;7730;49.610;11.136;2023-04-24T05:30:07;4.97;;;2.00;;
15254;SDS011;7730;49.610;11.136;2023-04-24T05:32:34;3.67;;;1.85;;
15254;SDS011;7730;49.610;11.136;2023-04-24T05:35:01;4.95;;;1.83;;
15254;SDS011;7730;49.610;11.136;2023-04-24T05:37:28;3.22;;;1.70;;
15254;SDS011;7730;49.610;11.136;2023-04-24T05:39:55;3.80;;;1.80;;
15254;SDS011;7730;49.610;11.136;2023-04-24T05:42:23;4.75;;;2.00;;
15254;SDS011;7730;49.610;11.136;2023-04-24T05:44:50;5.90;;;2.15;;
15254;SDS011;7730;49.610;11.136;2023-04-24T05:47:19;5.93;;;2.10;;
15254;SDS011;7730;49.610;11.136;2023-04-24T05:49:47;5.20;;;2.00;;
15254;SDS011;7730;49.610;11.136;2023-04-24T05:52:14;4.00;;;2.00;;
15254;SDS011;7730;49.610;11.136;2023-04-24T05:54:41;4.78;;;2.00;;
15254;SDS011;7730;49.610;11.136;2023-04-24T05:57:08;4.28;;;2.13;;
15254;SDS011;7730;49.610;11.136;2023-04-24T05:59:36;3.05;;;1.95;;
15254;SDS011;7730;49.610;11.136;2023-04-24T06:02:04;4.47;;;2.20;;
15254;SDS011;7730;49.610;11.136;2023-04-24T06:04:31;6.25;;;2.00;;
15254;SDS011;7730;49.610;11.136;2023-04-24T06:06:58;5.82;;;1.95;;
15254;SDS011;7730;49.610;11.136;2023-04-24T06:09:25;4.07;;;1.98;;
15254;SDS011;7730;49.610;11.136;2023-04-24T06:11:52;7.18;;;2.13;;
15254;SDS011;7730;49.610;11.136;2023-04-24T06:14:20;5.10;;;1.80;;
15254;SDS011;7730;49.610;11.136;2023-04-24T06:16:48;5.38;;;1.80;;
15254;SDS011;7730;49.610;11.136;2023-04-24T06:19:15;6.82;;;1.90;;
15254;SDS011;7730;49.610;11.136;2023-04-24T06:21:42;4.05;;;1.70;;
15254;SDS011;7730;49.610;11.136;2023-04-24T06:24:10;8.85;;;1.80;;
15254;SDS011;7730;49.610;11.136;2023-04-24T06:26:37;5.35;;;1.55;;
15254;SDS011;7730;49.610;11.136;2023-04-24T06:29:04;5.45;;;1.58;;
15254;SDS011;7730;49.610;11.136;2023-04-24T06:31:32;5.88;;;1.60;;
15254;SDS011;7730;49.610;11.136;2023-04-24T06:34:03;6.53;;;1.85;;
15254;SDS011;7730;49.610;11.136;2023-04-24T06:36:30;5.70;;;1.58;;
15254;SDS011;7730;49.610;11.136;2023-04-24T06:38:59;4.72;;;1.70;;
15254;SDS011;7730;49.610;11.136;2023-04-24T06:41:26;4.18;;;1.92;;
15254;SDS011;7730;49.610;11.136;2023-04-24T06:43:53;3.05;;;1.70;;
15254;SDS011;7730;49.610;11.136;2023-04-24T06:46:20;4.22;;;1.60;;
15254;SDS011;7730;49.610;11.136;2023-04-24T06:48:50;5.25;;;1.90;;
15254;SDS011;7730;49.610;11.136;2023-04-24T06:51:21;4.90;;;1.45;;
15254;SDS011;7730;49.610;11.136;2023-04-24T06:53:48;3.53;;;1.50;;
15254;SDS011;7730;49.610;11.136;2023-04-24T06:56:16;4.15;;;1.40;;
15254;SDS011;7730;49.610;11.136;2023-04-24T06:58:43;2.35;;;1.10;;
15254;SDS011;7730;49.610;11.136;2023-04-24T07:01:10;2.45;;;1.30;;
15254;SDS011;7730;49.610;11.136;2023-04-24T07:03:37;6.28;;;1.48;;
15254;SDS011;7730;49.610;11.136;2023-04-24T07:06:04;3.17;;;1.50;;
15254;SDS011;7730;49.610;11.136;2023-04-24T07:08:33;2.83;;;1.50;;
15254;SDS011;7730;49.610;11.136;2023-04-24T07:11:00;3.03;;;1.30;;
15254;SDS011;7730;49.610;11.136;2023-04-24T07:13:28;7.20;;;1.50;;
15254;SDS011;7730;49.610;11.136;2023-04-24T07:15:55;1.73;;;1.10;;
15254;SDS011;7730;49.610;11.136;2023-04-24T07:18:22;3.70;;;1.23;;
15254;SDS011;7730;49.610;11.136;2023-04-24T07:20:49;2.15;;;1.40;;
15254;SDS011;7730;49.610;11.136;2023-04-24T07:23:17;3.80;;;1.80;;
15254;SDS011;7730;49.610;11.136;2023-04-24T07:25:45;6.03;;;1.50;;
15254;SDS011;7730;49.610;11.136;2023-04-24T07:28:12;4.47;;;1.65;;
15254;SDS011;7730;49.610;11.136;2023-04-24T07:30:39;6.32;;;1.40;;
15254;SDS011;7730;49.610;11.136;2023-04-24T07:33:06;4.05;;;1.40;;
15254;SDS011;7730;49.610;11.136;2023-04-24T07:35:33;2.45;;;1.20;;
15254;SDS011;7730;49.610;11.136;2023-04-24T07:38:00;1.60;;;1.33;;
15254;SDS011;7730;49.610;11.136;2023-04-24T07:40:28;4.30;;;1.50;;
15254;SDS011;7730;49.610;11.136;2023-04-24T07:42:56;8.10;;;1.60;;
15254;SDS011;7730;49.610;11.136;2023-04-24T07:45:23;2.28;;;1.48;;
15254;SDS011;7730;49.610;11.136;2023-04-24T07:47:51;7.00;;;1.75;;
15254;SDS011;7730;49.610;11.136;2023-04-24T07:50:18;3.33;;;1.60;;
15254;SDS011;7730;49.610;11.136;2023-04-24T07:52:45;2.58;;;1.60;;
15254;SDS011;7730;49.610;11.136;2023-04-24T07:55:12;2.63;;;1.60;;
15254;SDS011;7730;49.610;11.136;2023-04-24T07:57:39;4.40;;;1.92;;
15254;SDS011;7730;49.610;11.136;2023-04-24T08:00:08;3.83;;;1.80;;
15254;SDS011;7730;49.610;11.136;2023-04-24T08:02:36;4.00;;;1.70;;
15254;SDS011;7730;49.610;11.136;2023-04-24T08:05:03;3.20;;;1.70;;
15254;SDS011;7730;49.610;11.136;2023-04-24T08:07:30;2.97;;;1.50;;
15254;SDS011;7730;49.610;11.136;2023-04-24T08:09:57;2.17;;;1.48;;
15254;SDS011;7730;49.610;11.136;2023-04-24T08:12:24;4.40;;;1.60;;
15254;SDS011;7730;49.610;11.136;2023-04-24T08:14:51;3.40;;;1.70;;
15254;SDS011;7730;49.610;11.136;2023-04-24T08:17:19;6.47;;;1.80;;
15254;SDS011;7730;49.610;11.136;2023-04-24T08:19:46;3.28;;;1.85;;
15254;SDS011;7730;49.610;11.136;2023-04-24T08:22:15;4.95;;;1.80;;
15254;SDS011;7730;49.610;11.136;2023-04-24T08:24:42;4.78;;;1.92;;
15254;SDS011;7730;49.610;11.136;2023-04-24T08:27:09;4.15;;;1.95;;
15254;SDS011;7730;49.610;11.136;2023-04-24T08:29:36;6.25;;;2.10;;
15254;SDS011;7730;49.610;11.136;2023-04-24T08:32:03;6.43;;;2.08;;
15254;SDS011;7730;49.610;11.136;2023-04-24T08:34:32;4.97;;;1.95;;
15254;SDS011;7730;49.610;11.136;2023-04-24T08:36:59;3.63;;;1.80;;
15254;SDS011;7730;49.610;11.136;2023-04-24T08:39:26;7.15;;;2.10;;
15254;SDS011;7730;49.610;11.136;2023-04-24T08:41:54;9.60;;;2.38;;
15254;SDS011;7730;49.610;11.136;2023-04-24T08:44:21;4.90;;;2.13;;
15254;SDS011;7730;49.610;11.136;2023-04-24T08:46:48;4.80;;;2.00;;
15254;SDS011;7730;49.610;11.136;2023-04-24T08:49:17;7.97;;;2.22;;
15254;SDS011;7730;49.610;11.136;2023-04-24T08:51:45;4.40;;;1.95;;
15254;SDS011;7730;49.610;11.136;2023-04-24T08:54:13;6.88;;;2.65;;
15254;SDS011;7730;49.610;11.136;2023-04-24T08:56:40;3.95;;;2.00;;
15254;SDS011;7730;49.610;11.136;2023-04-24T08:59:10;5.03;;;2.03;;
15254;SDS011;7730;49.610;11.136;2023-04-24T09:01:37;8.75;;;2.50;;
15254;SDS011;7730;49.610;11.136;2023-04-24T09:04:05;4.32;;;2.10;;
15254;SDS011;7730;49.610;11.136;2023-04-24T09:06:33;3.70;;;2.20;;
15254;SDS011;7730;49.610;11.136;2023-04-24T09:09:02;4.38;;;2.40;;
15254;SDS011;7730;49.610;11.136;2023-04-24T09:11:30;4.60;;;2.30;;
15254;SDS011;7730;49.610;11.136;2023-04-24T09:13:58;4.30;;;2.25;;
15254;SDS011;7730;49.610;11.136;2023-04-24T09:16:25;8.77;;;2.30;;
15254;SDS011;7730;49.610;11.136;2023-04-24T09:18:52;5.32;;;2.25;;
15254;SDS011;7730;49.610;11.136;2023-04-24T09:21:20;8.70;;;2.70;;
15254;SDS011;7730;49.610;11.136;2023-04-24T09:23:57;5.60;;;2.20;;
15254;SDS011;7730;49.610;11.136;2023-04-24T09:26:25;4.35;;;2.28;;
15254;SDS011;7730;49.610;11.136;2023-04-24T09:28:53;3.78;;;2.10;;
15254;SDS011;7730;49.610;11.136;2023-04-24T09:31:20;8.20;;;2.20;;
15254;SDS011;7730;49.610;11.136;2023-04-24T09:33:53;5.60;;;2.20;;
15254;SDS011;7730;49.610;11.136;2023-04-24T09:36:24;7.18;;;2.20;;
15254;SDS011;7730;49.610;11.136;2023-04-24T09:38:53;3.72;;;2.00;;
15254;SDS011;7730;49.610;11.136;2023-04-24T09:41:20;5.90;;;2.00;;
15254;SDS011;7730;49.610;11.136;2023-04-24T09:43:49;10.70;;;2.40;;
15254;SDS011;7730;49.610;11.136;2023-04-24T09:46:16;11.80;;;2.92;;
15254;SDS011;7730;49.610;11.136;2023-04-24T09:48:46;13.10;;;2.75;;
15254;SDS011;7730;49.610;11.136;2023-04-24T09:51:13;5.28;;;2.20;;
15254;SDS011;7730;49.610;11.136;2023-04-24T09:53:44;4.57;;;2.20;;
15254;SDS011;7730;49.610;11.136;2023-04-24T09:56:11;6.75;;;2.20;;
15254;SDS011;7730;49.610;11.136;2023-04-24T09:58:39;5.28;;;2.20;;
15254;SDS011;7730;49.610;11.136;2023-04-24T10:01:07;8.98;;;2.72;;
15254;SDS011;7730;49.610;11.136;2023-04-24T10:03:34;9.65;;;2.10;;
15254;SDS011;7730;49.610;11.136;2023-04-24T10:06:02;13.40;;;2.47;;
15254;SDS011;7730;49.610;11.136;2023-04-24T10:08:33;17.35;;;2.50;;
15254;SDS011;7730;49.610;11.136;2023-04-24T10:11:01;9.68;;;1.98;;
15254;SDS011;7730;49.610;11.136;2023-04-24T10:13:28;2.83;;;1.90;;
15254;SDS011;7730;49.610;11.136;2023-04-24T10:15:55;5.00;;;1.80;;
15254;SDS011;7730;49.610;11.136;2023-04-24T10:18:24;7.00;;;2.40;;
15254;SDS011;7730;49.610;11.136;2023-04-24T10:20:52;3.72;;;2.10;;
15254;SDS011;7730;49.610;11.136;2023-04-24T10:23:21;3.97;;;1.90;;
15254;SDS011;7730;49.610;11.136;2023-04-24T10:25:48;2.10;;;1.73;;
15254;SDS011;7730;49.610;11.136;2023-04-24T10:28:15;4.00;;;1.83;;
15254;SDS011;7730;49.610;11.136;2023-04-24T10:30:43;2.78;;;1.67;;
15254;SDS011;7730;49.610;11.136;2023-04-24T10:33:10;11.65;;;2.20;;
15254;SDS011;7730;49.610;11.136;2023-04-24T10:35:40;4.55;;;1.80;;
15254;SDS011;7730;49.610;11.136;2023-04-24T10:38:09;9.02;;;2.33;;
15254;SDS011;7730;49.610;11.136;2023-04-24T10:40:37;7.95;;;2.30;;
15254;SDS011;7730;49.610;11.136;2023-04-24T10:43:04;14.80;;;2.92;;
15254;SDS011;7730;49.610;11.136;2023-04-24T10:45:33;14.75;;;2.50;;
15254;SDS011;7730;49.610;11.136;2023-04-24T10:48:01;16.73;;;3.03;;
15254;SDS011;7730;49.610;11.136;2023-04-24T10:50:28;4.28;;;1.30;;
15254;SDS011;7730;49.610;11.136;2023-04-24T10:53:05;12.52;;;2.13;;
15254;SDS011;7730;49.610;11.136;2023-04-24T10:55:39;7.55;;;1.80;;
15254;SDS011;7730;49.610;11.136;2023-04-24T10:58:07;24.80;;;3.50;;
15254;SDS011;7730;49.610;11.136;2023-04-24T11:00:36;3.60;;;1.10;;
15254;SDS011;7730;49.610;11.136;2023-04-24T11:03:04;2.80;;;1.13;;
15254;SDS011;7730;49.610;11.136;2023-04-24T11:08:15;8.95;;;1.70;;
15254;SDS011;7730;49.610;11.136;2023-04-24T11:10:46;5.50;;;1.50;;
15254;SDS011;7730;49.610;11.136;2023-04-24T11:13:16;3.42;;;1.50;;
15254;SDS011;7730;49.610;11.136;2023-04-24T11:15:43;4.57;;;1.60;;
15254;SDS011;7730;49.610;11.136;2023-04-24T11:18:14;2.80;;;1.40;;
15254;SDS011;7730;49.610;11.136;2023-04-24T11:20:41;7.75;;;1.60;;
15254;SDS011;7730;49.610;11.136;2023-04-24T11:23:08;10.77;;;2.20;;
15254;SDS011;7730;49.610;11.136;2023-04-24T11:25:40;7.43;;;2.10;;
15254;SDS011;7730;49.610;11.136;2023-04-24T11:28:08;4.15;;;1.80;;
15254;SDS011;7730;49.610;11.136;2023-04-24T11:30:41;5.80;;;1.90;;
15254;SDS011;7730;49.610;11.136;2023-04-24T11:33:08;6.28;;;1.92;;
15254;SDS011;7730;49.610;11.136;2023-04-24T11:35:35;2.45;;;1.77;;
15254;SDS011;7730;49.610;11.136;2023-04-24T11:38:05;5.35;;;2.08;;
15254;SDS011;7730;49.610;11.136;2023-04-24T11:40:33;4.72;;;2.00;;
15254;SDS011;7730;49.610;11.136;2023-04-24T11:43:02;7.88;;;2.50;;
15254;SDS011;7730;49.610;11.136;2023-04-24T11:45:30;6.57;;;2.05;;
15254;SDS011;7730;49.610;11.136;2023-04-24T11:47:57;17.98;;;2.60;;
15254;SDS011;7730;49.610;11.136;2023-04-24T11:50:25;4.78;;;2.20;;
15254;SDS011;7730;49.610;11.136;2023-04-24T11:52:53;6.60;;;2.00;;
15254;SDS011;7730;49.610;11.136;2023-04-24T11:55:27;6.50;;;2.05;;
15254;SDS011;7730;49.610;11.136;2023-04-24T11:57:55;7.70;;;2.20;;
15254;SDS011;7730;49.610;11.136;2023-04-24T12:00:24;3.55;;;1.70;;
15254;SDS011;7730;49.610;11.136;2023-04-24T12:03:02;5.43;;;1.90;;
15254;SDS011;7730;49.610;11.136;2023-04-24T12:05:30;2.38;;;1.70;;
15254;SDS011;7730;49.610;11.136;2023-04-24T12:07:57;7.22;;;2.33;;
15254;SDS011;7730;49.610;11.136;2023-04-24T12:10:25;4.40;;;1.90;;
15254;SDS011;7730;49.610;11.136;2023-04-24T12:12:52;4.88;;;1.90;;
15254;SDS011;7730;49.610;11.136;2023-04-24T12:15:20;4.95;;;2.00;;
15254;SDS011;7730;49.610;11.136;2023-04-24T12:17:50;4.43;;;2.00;;
15254;SDS011;7730;49.610;11.136;2023-04-24T12:20:17;3.78;;;2.00;;
15254;SDS011;7730;49.610;11.136;2023-04-24T12:22:50;5.22;;;2.00;;
15254;SDS011;7730;49.610;11.136;2023-04-24T12:25:19;2.63;;;1.90;;
15254;SDS011;7730;49.610;11.136;2023-04-24T12:27:46;4.47;;;2.10;;
15254;SDS011;7730;49.610;11.136;2023-04-24T12:30:15;4.50;;;2.10;;
15254;SDS011;7730;49.610;11.136;2023-04-24T12:32:42;22.13;;;3.05;;
15254;SDS011;7730;49.610;11.136;2023-04-24T12:35:11;15.43;;;2.90;;
15254;SDS011;7730;49.610;11.136;2023-04-24T12:37:38;8.52;;;2.20;;
15254;SDS011;7730;49.610;11.136;2023-04-24T12:40:08;11.05;;;2.30;;
15254;SDS011;7730;49.610;11.136;2023-04-24T12:42:36;5.13;;;2.20;;
15254;SDS011;7730;49.610;11.136;2023-04-24T12:45:08;6.60;;;2.30;;
15254;SDS011;7730;49.610;11.136;2023-04-24T12:47:37;11.48;;;2.40;;
15254;SDS011;7730;49.610;11.136;2023-04-24T12:50:04;4.60;;;2.10;;
15254;SDS011;7730;49.610;11.136;2023-04-24T12:52:33;6.80;;;2.28;;
15254;SDS011;7730;49.610;11.136;2023-04-24T12:55:00;6.70;;;2.30;;
15254;SDS011;7730;49.610;11.136;2023-04-24T12:57:28;5.50;;;2.00;;
15254;SDS011;7730;49.610;11.136;2023-04-24T12:59:56;6.72;;;2.10;;
15254;SDS011;7730;49.610;11.136;2023-04-24T13:02:23;5.03;;;1.92;;
15254;SDS011;7730;49.610;11.136;2023-04-24T13:04:51;3.13;;;1.80;;
15254;SDS011;7730;49.610;11.136;2023-04-24T13:07:19;7.22;;;2.13;;
15254;SDS011;7730;49.610;11.136;2023-04-24T13:09:48;9.90;;;2.42;;
15254;SDS011;7730;49.610;11.136;2023-04-24T13:12:15;3.67;;;2.00;;
15254;SDS011;7730;49.610;11.136;2023-04-24T13:14:42;6.30;;;2.15;;
15254;SDS011;7730;49.610;11.136;2023-04-24T13:17:10;4.78;;;1.80;;
15254;SDS011;7730;49.610;11.136;2023-04-24T13:19:38;8.00;;;3.28;;
15254;SDS011;7730;49.610;11.136;2023-04-24T13:22:05;13.60;;;4.07;;
15254;SDS011;7730;49.610;11.136;2023-04-24T13:24:33;7.65;;;2.92;;
15254;SDS011;7730;49.610;11.136;2023-04-24T13:27:01;8.63;;;2.92;;
15254;SDS011;7730;49.610;11.136;2023-04-24T13:29:29;4.03;;;2.30;;
15254;SDS011;7730;49.610;11.136;2023-04-24T13:31:56;15.23;;;2.80;;
15254;SDS011;7730;49.610;11.136;2023-04-24T13:34:23;5.38;;;2.00;;
15254;SDS011;7730;49.610;11.136;2023-04-24T13:36:51;2.97;;;2.00;;
15254;SDS011;7730;49.610;11.136;2023-04-24T13:39:18;4.13;;;1.85;;
15254;SDS011;7730;49.610;11.136;2023-04-24T13:41:45;4.82;;;1.90;;
15254;SDS011;7730;49.610;11.136;2023-04-24T13:44:14;4.30;;;1.85;;
15254;SDS011;7730;49.610;11.136;2023-04-24T13:46:42;5.00;;;2.08;;
15254;SDS011;7730;49.610;11.136;2023-04-24T13:49:13;6.68;;;1.90;;
15254;SDS011;7730;49.610;11.136;2023-04-24T13:51:40;9.55;;;2.10;;
15254;SDS011;7730;49.610;11.136;2023-04-24T13:54:10;10.93;;;2.10;;
15254;SDS011;7730;49.610;11.136;2023-04-24T13:56:38;7.63;;;2.10;;
15254;SDS011;7730;49.610;11.136;2023-04-24T13:59:05;5.63;;;2.03;;
15254;SDS011;7730;49.610;11.136;2023-04-24T14:01:34;9.60;;;2.35;;
15254;SDS011;7730;49.610;11.136;2023-04-24T14:04:02;5.97;;;2.20;;
15254;SDS011;7730;49.610;11.136;2023-04-24T14:06:29;8.50;;;2.15;;
15254;SDS011;7730;49.610;11.136;2023-04-24T14:08:56;4.28;;;1.80;;
15254;SDS011;7730;49.610;11.136;2023-04-24T14:11:23;4.22;;;1.60;;
15254;SDS011;7730;49.610;11.136;2023-04-24T14:13:50;7.45;;;1.83;;
15254;SDS011;7730;49.610;11.136;2023-04-24T14:16:18;8.93;;;2.08;;
15254;SDS011;7730;49.610;11.136;2023-04-24T14:18:49;13.05;;;2.05;;
15254;SDS011;7730;49.610;11.136;2023-04-24T14:21:16;3.90;;;1.48;;
15254;SDS011;7730;49.610;11.136;2023-04-24T14:23:44;11.88;;;2.08;;
15254;SDS011;7730;49.610;11.136;2023-04-24T14:26:11;6.45;;;2.05;;
15254;SDS011;7730;49.610;11.136;2023-04-24T14:28:38;4.85;;;2.00;;
15254;SDS011;7730;49.610;11.136;2023-04-24T14:31:05;5.32;;;2.00;;
15254;SDS011;7730;49.610;11.136;2023-04-24T14:33:33;2.97;;;1.88;;
15254;SDS011;7730;49.610;11.136;2023-04-24T14:36:02;5.40;;;2.22;;
15254;SDS011;7730;49.610;11.136;2023-04-24T14:38:30;9.63;;;2.72;;
15254;SDS011;7730;49.610;11.136;2023-04-24T14:40:57;6.45;;;2.20;;
15254;SDS011;7730;49.610;11.136;2023-04-24T14:43:24;6.72;;;2.30;;
15254;SDS011;7730;49.610;11.136;2023-04-24T14:45:51;4.30;;;2.45;;
15254;SDS011;7730;49.610;11.136;2023-04-24T14:48:18;9.48;;;2.47;;
15254;SDS011;7730;49.610;11.136;2023-04-24T14:50:45;4.45;;;2.33;;
15254;SDS011;7730;49.610;11.136;2023-04-24T14:53:14;9.07;;;2.42;;